GMME/RBA METAR and TAF weather

Enter ICAO airport designator
Station Type Date Time Source
GMME METAR 2019/04/21 22:00 UTC NOAA

GMME 212200Z 28004KT 250V310 5000 FEW020 15/12 Q1009 NOSIG


Station Type Date Time Source
GMME Decoded METAR 2019/04/21 22:00 UTC NOAA

Rabat-Sale, Morocco (GMME) 34-03N 006-46W 75M
Apr 21, 2019 - 06:00 PM EDT / 2019.04.21 2200 UTC
Wind: from the W (280 degrees) at 5 MPH (4 KT) (direction variable):0
Visibility: 3 mile(s):0
Sky conditions: mostly clear
Temperature: 59 F (15 C)
Dew Point: 53 F (12 C)
Relative Humidity: 82%
Pressure (altimeter): 29.80 in. Hg (1009 hPa)
ob: GMME 212200Z 28004KT 250V310 5000 FEW020 15/12 Q1009 NOSIG
cycle: 22

Station Type Date Time Source
GMME TAF 2019/04/21 18:18 UTC NOAA

TAF GMME 211700Z 2118/2224 32007KT 5000 SCT006 SCT016
TEMPO 2118/2205 3000 RA BKN006 SCT013

Example: see airport list